createdAt,value
2022-08-02T00:02:20.911Z,6.15
2022-08-02T00:04:47.635Z,8.57
2022-08-02T00:07:15.718Z,5.05
2022-08-02T00:09:42.646Z,7.30
2022-08-02T00:12:09.675Z,7.68
2022-08-02T00:14:36.831Z,6.03
2022-08-02T00:17:03.874Z,7.70
2022-08-02T00:19:30.321Z,7.50
2022-08-02T00:21:56.835Z,9.15
2022-08-02T00:24:30.822Z,9.65
2022-08-02T00:26:58.806Z,7.85
2022-08-02T00:29:25.775Z,8.95
2022-08-02T00:31:52.270Z,9.43
2022-08-02T00:34:29.182Z,5.20
2022-08-02T00:36:58.563Z,8.45
2022-08-02T00:39:35.312Z,7.13
2022-08-02T00:42:03.010Z,8.82
2022-08-02T00:44:29.457Z,8.63
2022-08-02T00:46:55.963Z,5.32
2022-08-02T00:49:22.501Z,8.10
2022-08-02T00:51:49.092Z,9.40
2022-08-02T00:54:15.590Z,10.55
2022-08-02T00:56:49.701Z,9.85
2022-08-02T00:59:17.931Z,6.05
2022-08-02T01:01:55.839Z,9.10
2022-08-02T01:04:30.400Z,10.23
2022-08-02T01:06:59.854Z,7.50
2022-08-02T01:09:26.693Z,8.25
2022-08-02T01:11:53.415Z,4.75
2022-08-02T01:14:20.169Z,10.20
2022-08-02T01:17:03.993Z,6.30
2022-08-02T01:19:45.938Z,7.47
2022-08-02T01:22:59.602Z,6.70
2022-08-02T01:25:37.874Z,7.05
2022-08-02T01:28:28.477Z,7.13
2022-08-02T01:30:58.879Z,9.55
2022-08-02T01:33:28.593Z,8.88
2022-08-02T01:35:56.763Z,9.85
2022-08-02T01:38:31.063Z,7.47
2022-08-02T01:40:58.771Z,12.32
2022-08-02T01:43:26.451Z,12.02
2022-08-02T01:45:53.124Z,9.00
2022-08-02T01:48:20.822Z,8.45
2022-08-02T01:50:48.824Z,10.55
2022-08-02T01:53:15.702Z,6.40
2022-08-02T01:55:58.340Z,8.73
2022-08-02T01:58:27.685Z,7.70
2022-08-02T02:00:56.904Z,8.55
2022-08-02T02:03:25.270Z,9.90
2022-08-02T02:05:54.572Z,8.63
2022-08-02T02:08:27.164Z,8.15
2022-08-02T02:10:55.660Z,10.77
2022-08-02T02:13:33.118Z,9.23
2022-08-02T02:16:03.924Z,8.43
2022-08-02T02:18:30.836Z,9.98
2022-08-02T02:20:57.645Z,10.00
2022-08-02T02:23:25.738Z,8.55
2022-08-02T02:25:55.728Z,9.68
2022-08-02T02:28:30.168Z,7.50
2022-08-02T02:31:02.418Z,9.45
2022-08-02T02:33:30.779Z,8.13
2022-08-02T02:35:57.618Z,9.32
2022-08-02T02:38:27.964Z,13.35
2022-08-02T02:40:56.586Z,11.45
2022-08-02T02:43:24.889Z,8.63
2022-08-02T02:45:51.947Z,8.25
2022-08-02T02:48:18.869Z,10.45
2022-08-02T02:50:45.780Z,6.18
2022-08-02T02:53:12.634Z,9.75
2022-08-02T02:55:39.877Z,6.50
2022-08-02T02:58:06.695Z,8.98
2022-08-02T03:00:51.941Z,8.88
2022-08-02T03:03:21.412Z,11.55
2022-08-02T03:05:48.745Z,9.30
2022-08-02T03:08:15.207Z,6.40
2022-08-02T03:10:43.905Z,9.48
2022-08-02T03:13:10.916Z,7.55
2022-08-02T03:15:37.550Z,9.68
2022-08-02T03:18:04.175Z,6.38
2022-08-02T03:20:30.580Z,7.85
2022-08-02T03:22:56.999Z,13.90
2022-08-02T03:25:23.482Z,9.23
2022-08-02T03:27:49.922Z,8.90
2022-08-02T03:30:16.382Z,6.78
2022-08-02T03:32:45.392Z,10.18
2022-08-02T03:35:16.605Z,7.68
2022-08-02T03:37:45.577Z,8.07
2022-08-02T03:40:13.069Z,9.02
2022-08-02T03:42:40.515Z,9.65
2022-08-02T03:45:10.060Z,8.82
2022-08-02T03:47:39.069Z,9.57
2022-08-02T03:50:07.856Z,10.65
2022-08-02T03:52:34.691Z,12.45
2022-08-02T03:55:01.209Z,9.10
2022-08-02T03:57:27.687Z,9.20
2022-08-02T03:59:54.140Z,12.55
2022-08-02T04:02:20.610Z,10.48
2022-08-02T04:04:47.018Z,9.27
2022-08-02T04:07:13.491Z,10.10
2022-08-02T04:09:39.944Z,7.88
2022-08-02T04:12:06.525Z,7.13
2022-08-02T04:14:36.802Z,10.25
2022-08-02T04:17:07.574Z,9.32
2022-08-02T04:19:47.674Z,9.20
2022-08-02T04:22:19.730Z,12.30
2022-08-02T04:24:50.227Z,9.20
2022-08-02T04:27:49.353Z,7.50
2022-08-02T04:30:05.738Z,10.43
2022-08-02T04:32:32.596Z,8.43
2022-08-02T04:35:18.598Z,6.65
2022-08-02T04:38:09.624Z,11.45
2022-08-02T04:40:32.008Z,8.70
2022-08-02T04:42:58.491Z,8.32
2022-08-02T04:45:25.763Z,11.13
2022-08-02T04:48:01.508Z,9.52
2022-08-02T04:50:30.162Z,9.52
2022-08-02T04:52:56.596Z,9.88
2022-08-02T04:55:28.419Z,6.88
2022-08-02T04:57:55.450Z,10.55
2022-08-02T05:00:22.228Z,9.27
2022-08-02T05:02:49.307Z,11.75
2022-08-02T05:05:16.424Z,10.10
2022-08-02T05:07:42.876Z,11.85
2022-08-02T05:10:09.493Z,7.88
2022-08-02T05:12:40.547Z,9.07
2022-08-02T05:15:12.594Z,7.68
2022-08-02T05:17:39.635Z,7.82
2022-08-02T05:20:14.833Z,12.27
2022-08-02T05:22:41.436Z,8.80
2022-08-02T05:25:08.982Z,10.10
2022-08-02T05:27:35.427Z,12.13
2022-08-02T05:30:02.173Z,10.65
2022-08-02T05:32:28.628Z,13.35
2022-08-02T05:34:55.080Z,8.93
2022-08-02T05:37:21.509Z,11.40
2022-08-02T05:39:56.114Z,14.02
2022-08-02T05:42:23.044Z,7.63
2022-08-02T05:44:49.493Z,11.27
2022-08-02T05:47:15.920Z,10.07
2022-08-02T05:49:42.919Z,11.07
2022-08-02T05:52:15.808Z,11.02
2022-08-02T05:54:55.014Z,10.70
2022-08-02T05:57:43.198Z,10.18
2022-08-02T06:00:13.475Z,10.40
2022-08-02T06:02:43.026Z,7.45
2022-08-02T06:05:13.731Z,9.80
2022-08-02T06:07:42.140Z,10.40
2022-08-02T06:10:09.784Z,13.80
2022-08-02T06:12:42.025Z,9.93
2022-08-02T06:15:08.825Z,10.20
2022-08-02T06:17:35.629Z,11.25
2022-08-02T06:20:09.285Z,11.18
2022-08-02T06:22:37.037Z,10.27
2022-08-02T06:25:05.105Z,11.32
2022-08-02T06:27:31.896Z,13.52
2022-08-02T06:29:58.665Z,9.98
2022-08-02T06:32:26.707Z,11.32
2022-08-02T06:34:53.134Z,12.10
2022-08-02T06:37:41.088Z,12.35
2022-08-02T06:40:23.015Z,9.38
2022-08-02T06:43:02.922Z,8.63
2022-08-02T06:45:29.419Z,13.25
2022-08-02T06:47:55.866Z,10.15
2022-08-02T06:50:22.342Z,13.50
2022-08-02T06:52:48.835Z,12.60
2022-08-02T06:55:15.282Z,9.90
2022-08-02T06:57:41.810Z,13.18
2022-08-02T07:00:09.426Z,13.05
2022-08-02T07:02:37.251Z,12.85
2022-08-02T07:05:04.596Z,11.85
2022-08-02T07:07:31.094Z,11.68
2022-08-02T07:10:01.246Z,14.80
2022-08-02T07:12:32.848Z,12.98
2022-08-02T07:15:00.140Z,9.82
2022-08-02T07:17:27.126Z,9.52
2022-08-02T07:19:53.604Z,11.00
2022-08-02T07:22:23.165Z,11.45
2022-08-02T07:24:50.334Z,10.50
2022-08-02T07:27:16.838Z,9.88
2022-08-02T07:29:46.691Z,10.10
2022-08-02T07:32:22.424Z,9.45
2022-08-02T07:34:51.295Z,8.18
2022-08-02T07:37:52.977Z,8.75
2022-08-02T07:40:14.115Z,8.68
2022-08-02T07:42:47.159Z,9.07
2022-08-02T07:45:14.479Z,9.35
2022-08-02T07:47:42.590Z,8.55
2022-08-02T07:50:10.300Z,8.50
2022-08-02T07:52:36.748Z,6.35
2022-08-02T07:55:04.703Z,5.20
2022-08-02T07:57:31.123Z,5.97
2022-08-02T07:59:57.601Z,9.27
2022-08-02T08:02:25.049Z,5.80
2022-08-02T08:04:52.714Z,7.10
2022-08-02T08:07:19.383Z,6.82
2022-08-02T08:09:47.435Z,7.78
2022-08-02T08:12:16.238Z,7.97
2022-08-02T08:14:43.607Z,16.05
2022-08-02T08:17:10.061Z,10.25
2022-08-02T08:19:51.412Z,7.38
2022-08-02T08:22:22.249Z,7.45
2022-08-02T08:24:49.104Z,8.45
2022-08-02T08:27:16.663Z,8.20
2022-08-02T08:29:43.732Z,10.70
2022-08-02T08:32:15.836Z,7.90
2022-08-02T08:34:43.410Z,5.57
2022-08-02T08:37:09.966Z,6.28
2022-08-02T08:39:58.415Z,5.90
2022-08-02T08:42:29.298Z,8.30
2022-08-02T08:44:56.619Z,6.25
2022-08-02T08:47:24.280Z,6.28
2022-08-02T08:49:53.351Z,3.97
2022-08-02T08:52:21.991Z,5.47
2022-08-02T08:54:48.918Z,7.72
2022-08-02T08:57:16.790Z,6.57
2022-08-02T08:59:43.308Z,5.30
2022-08-02T09:02:21.445Z,6.75
2022-08-02T09:04:54.513Z,5.05
2022-08-02T09:07:21.765Z,4.57
2022-08-02T09:09:48.196Z,4.50
2022-08-02T09:12:22.421Z,5.15
2022-08-02T09:14:50.210Z,5.38
2022-08-02T09:17:17.721Z,6.78
2022-08-02T09:19:45.761Z,7.20
2022-08-02T09:22:14.544Z,5.07
2022-08-02T09:24:43.822Z,3.47
2022-08-02T09:27:12.184Z,4.15
2022-08-02T09:30:05.998Z,4.32
2022-08-02T09:32:25.771Z,4.43
2022-08-02T09:34:54.181Z,4.05
2022-08-02T09:37:28.264Z,4.28
2022-08-02T09:39:58.057Z,6.95
2022-08-02T09:42:30.848Z,4.97
2022-08-02T09:45:00.400Z,4.38
2022-08-02T09:47:28.242Z,4.10
2022-08-02T09:49:58.470Z,3.65
2022-08-02T09:52:37.271Z,6.10
2022-08-02T09:55:11.434Z,3.92
2022-08-02T09:57:40.879Z,2.28
2022-08-02T10:00:14.859Z,5.90
2022-08-02T10:03:14.309Z,4.63
2022-08-02T10:05:56.000Z,5.05
2022-08-02T10:08:25.126Z,2.67
2022-08-02T10:11:00.499Z,3.83
2022-08-02T10:13:31.785Z,2.38
2022-08-02T10:15:58.823Z,6.63
2022-08-02T10:18:38.250Z,4.35
2022-08-02T10:21:08.088Z,3.55
2022-08-02T10:23:37.064Z,3.30
2022-08-02T10:26:04.632Z,3.33
2022-08-02T10:28:34.002Z,2.15
2022-08-02T10:31:04.881Z,2.35
2022-08-02T10:33:34.872Z,2.45
2022-08-02T10:36:04.504Z,3.22
2022-08-02T10:38:34.876Z,4.85
2022-08-02T10:41:01.389Z,3.38
2022-08-02T10:43:36.661Z,4.28
2022-08-02T10:46:30.666Z,3.63
2022-08-02T10:52:01.247Z,3.90
2022-08-02T10:54:29.614Z,3.17
2022-08-02T10:56:56.866Z,4.82
2022-08-02T10:59:33.567Z,4.18
2022-08-02T11:02:05.357Z,3.60
2022-08-02T11:04:41.887Z,4.63
2022-08-02T11:07:16.885Z,3.88
2022-08-02T11:09:44.655Z,2.22
2022-08-02T11:12:19.873Z,4.75
2022-08-02T11:14:59.086Z,3.88
2022-08-02T11:17:28.807Z,3.17
2022-08-02T11:20:10.758Z,4.50
2022-08-02T11:22:38.951Z,3.70
2022-08-02T11:25:29.704Z,3.92
2022-08-02T11:28:09.266Z,3.13
2022-08-02T11:30:36.578Z,4.75
2022-08-02T11:33:03.424Z,4.07
2022-08-02T11:35:34.699Z,5.07
2022-08-02T11:38:21.701Z,4.13
2022-08-02T11:40:49.122Z,2.33
2022-08-02T11:43:17.498Z,4.05
2022-08-02T11:45:44.167Z,2.65
2022-08-02T11:48:10.700Z,5.90
2022-08-02T11:50:37.169Z,2.83
2022-08-02T11:53:13.060Z,2.45
2022-08-02T11:55:39.576Z,4.35
2022-08-02T11:58:09.671Z,2.97
2022-08-02T12:00:36.110Z,3.92
2022-08-02T12:03:02.700Z,5.20
2022-08-02T12:08:19.108Z,4.07
2022-08-02T12:10:49.683Z,3.03
2022-08-02T12:13:16.382Z,3.03
2022-08-02T12:15:45.273Z,2.47
2022-08-02T12:18:32.885Z,3.17
2022-08-02T12:20:59.506Z,2.28
2022-08-02T12:23:26.695Z,3.58
2022-08-02T12:26:01.106Z,3.53
2022-08-02T12:28:27.563Z,3.20
2022-08-02T12:30:59.510Z,4.03
2022-08-02T12:35:56.935Z,2.95
2022-08-02T12:38:23.467Z,2.38
2022-08-02T12:40:50.078Z,7.70
2022-08-02T12:43:22.269Z,1.98
2022-08-02T12:45:54.465Z,4.80
2022-08-02T12:48:42.216Z,3.13
2022-08-02T12:51:50.754Z,1.73
2022-08-02T12:54:20.604Z,2.47
2022-08-02T12:56:57.697Z,4.07
2022-08-02T12:59:39.619Z,2.17
2022-08-02T13:04:33.319Z,4.65
2022-08-02T13:06:59.866Z,4.00
2022-08-02T13:09:29.378Z,4.20
2022-08-02T13:11:56.082Z,2.17
2022-08-02T13:14:22.531Z,4.82
2022-08-02T13:16:49.237Z,2.90
2022-08-02T13:19:15.774Z,2.47
2022-08-02T13:22:02.156Z,4.22
2022-08-02T13:24:39.753Z,2.75
2022-08-02T13:27:13.722Z,3.17
2022-08-02T13:29:40.174Z,2.55
2022-08-02T13:32:06.665Z,3.33
2022-08-02T13:34:33.126Z,3.28
2022-08-02T13:36:59.575Z,3.95
2022-08-02T13:39:26.140Z,2.97
2022-08-02T13:41:53.011Z,2.63
2022-08-02T13:44:19.654Z,2.08
2022-08-02T13:46:46.287Z,4.43
2022-08-02T13:49:18.793Z,4.82
2022-08-02T13:51:46.064Z,4.40
2022-08-02T13:54:12.561Z,2.95
2022-08-02T13:56:39.039Z,5.30
2022-08-02T13:59:54.027Z,5.80
2022-08-02T14:01:52.991Z,6.05
2022-08-02T14:04:20.688Z,3.40
2022-08-02T14:06:47.103Z,4.53
2022-08-02T14:09:17.045Z,3.53
2022-08-02T14:11:44.327Z,2.90
2022-08-02T14:14:16.621Z,6.82
2022-08-02T14:16:45.285Z,2.40
2022-08-02T14:19:16.719Z,3.40
2022-08-02T14:21:48.061Z,5.18
2022-08-02T14:24:15.793Z,3.20
2022-08-02T14:26:42.520Z,3.25
2022-08-02T14:29:09.052Z,2.75
2022-08-02T14:31:38.980Z,3.25
2022-08-02T14:34:08.292Z,2.40
2022-08-02T14:36:34.748Z,2.60
2022-08-02T14:39:01.896Z,2.78
2022-08-02T14:41:28.452Z,3.03
2022-08-02T14:44:04.209Z,2.55
2022-08-02T14:46:31.731Z,2.58
2022-08-02T14:49:01.889Z,1.40
2022-08-02T14:51:31.878Z,4.68
2022-08-02T14:54:02.682Z,3.50
2022-08-02T14:56:29.719Z,1.83
2022-08-02T14:58:56.168Z,4.07
2022-08-02T15:01:26.028Z,3.60
2022-08-02T15:03:53.219Z,3.00
2022-08-02T15:06:19.754Z,3.15
2022-08-02T15:08:46.256Z,6.13
2022-08-02T15:11:12.701Z,3.65
2022-08-02T15:13:42.481Z,5.13
2022-08-02T15:16:09.710Z,2.03
2022-08-02T15:18:36.221Z,5.50
2022-08-02T15:21:08.033Z,2.47
2022-08-02T15:23:49.171Z,3.63
2022-08-02T15:26:15.633Z,2.78
2022-08-02T15:28:42.105Z,2.70
2022-08-02T15:31:08.664Z,2.53
2022-08-02T15:33:35.103Z,1.88
2022-08-02T15:36:02.027Z,3.78
2022-08-02T15:38:28.592Z,4.32
2022-08-02T15:40:55.043Z,2.28
2022-08-02T15:43:21.749Z,3.60
2022-08-02T15:45:48.247Z,2.85
2022-08-02T15:48:14.763Z,2.20
2022-08-02T15:50:41.240Z,3.83
2022-08-02T15:53:07.744Z,3.33
2022-08-02T15:55:39.927Z,3.85
2022-08-02T15:58:22.320Z,3.13
2022-08-02T16:00:49.058Z,4.25
2022-08-02T16:03:15.486Z,1.73
2022-08-02T16:05:42.015Z,3.45
2022-08-02T16:08:08.533Z,3.20
2022-08-02T16:10:35.128Z,2.88
2022-08-02T16:13:20.229Z,2.83
2022-08-02T16:15:46.716Z,2.95
2022-08-02T16:18:13.151Z,4.07
2022-08-02T16:20:39.620Z,3.92
2022-08-02T16:23:06.087Z,3.80
2022-08-02T16:25:32.564Z,5.85
2022-08-02T16:28:07.186Z,2.35
2022-08-02T16:30:34.856Z,5.07
2022-08-02T16:33:01.343Z,3.83
2022-08-02T16:35:30.886Z,2.15
2022-08-02T16:37:57.354Z,3.85
2022-08-02T16:40:23.953Z,4.18
2022-08-02T16:42:51.197Z,3.75
2022-08-02T16:45:22.390Z,2.92
2022-08-02T16:47:56.276Z,2.65
2022-08-02T16:50:28.298Z,4.47
2022-08-02T16:53:17.263Z,2.67
2022-08-02T16:55:59.274Z,2.83
2022-08-02T16:58:26.390Z,3.25
2022-08-02T17:00:53.417Z,2.53
2022-08-02T17:03:19.859Z,2.88
2022-08-02T17:05:56.018Z,2.88
2022-08-02T17:08:23.273Z,3.65
2022-08-02T17:10:57.978Z,3.30
2022-08-02T17:13:29.910Z,4.97
2022-08-02T17:16:15.928Z,4.97
2022-08-02T17:18:43.195Z,2.80
2022-08-02T17:21:15.724Z,2.25
2022-08-02T17:24:04.170Z,3.38
2022-08-02T17:26:31.288Z,2.97
2022-08-02T17:29:15.662Z,2.83
2022-08-02T17:32:05.556Z,4.03
2022-08-02T17:34:32.620Z,2.83
2022-08-02T17:36:59.932Z,4.93
2022-08-02T17:39:33.928Z,1.95
2022-08-02T17:42:01.353Z,2.10
2022-08-02T17:44:37.432Z,3.50
2022-08-02T17:47:07.112Z,3.42
2022-08-02T17:49:38.365Z,3.00
2022-08-02T17:52:48.695Z,2.28
2022-08-02T17:54:57.098Z,3.17
2022-08-02T17:57:24.199Z,3.55
2022-08-02T18:00:11.340Z,4.07
2022-08-02T18:02:38.910Z,3.25
2022-08-02T18:05:05.717Z,3.97
2022-08-02T18:07:50.091Z,4.57
2022-08-02T18:10:19.869Z,2.55
2022-08-02T18:12:47.171Z,6.18
2022-08-02T18:15:15.660Z,2.83
2022-08-02T18:17:42.206Z,4.60
2022-08-02T18:20:11.132Z,4.03
2022-08-02T18:22:37.873Z,3.63
2022-08-02T18:25:09.573Z,2.08
2022-08-02T18:27:36.260Z,2.75
2022-08-02T18:30:06.020Z,3.95
2022-08-02T18:33:55.058Z,2.67
2022-08-02T18:35:19.502Z,5.10
2022-08-02T18:37:56.781Z,3.63
2022-08-02T18:40:24.001Z,4.57
2022-08-02T18:42:50.399Z,3.05
2022-08-02T18:45:19.725Z,3.47
2022-08-02T18:47:51.083Z,1.80
2022-08-02T18:50:18.041Z,2.35
2022-08-02T18:52:44.701Z,4.22
2022-08-02T18:55:17.554Z,2.85
2022-08-02T18:58:17.888Z,3.00
2022-08-02T19:00:47.636Z,2.20
2022-08-02T19:03:18.889Z,4.13
2022-08-02T19:05:52.329Z,6.32
2022-08-02T19:08:25.457Z,5.68
2022-08-02T19:10:53.111Z,6.28
2022-08-02T19:13:21.726Z,4.03
2022-08-02T19:15:48.242Z,5.25
2022-08-02T19:18:14.694Z,3.85
2022-08-02T19:20:41.174Z,3.20
2022-08-02T19:23:14.988Z,4.32
2022-08-02T19:25:50.273Z,4.70
2022-08-02T19:28:16.783Z,4.85
2022-08-02T19:30:52.899Z,5.28
2022-08-02T19:33:25.043Z,4.78
2022-08-02T19:36:06.796Z,2.30
2022-08-02T19:38:33.555Z,2.78
2022-08-02T19:40:59.994Z,2.20
2022-08-02T19:44:27.473Z,3.33
2022-08-02T19:46:16.004Z,2.67
2022-08-02T19:48:42.649Z,2.85
2022-08-02T19:51:12.812Z,2.50
2022-08-02T19:53:48.450Z,3.08
2022-08-02T19:56:21.050Z,2.20
2022-08-02T19:58:52.071Z,4.20
2022-08-02T20:01:23.541Z,2.90
2022-08-02T20:03:54.458Z,2.47
2022-08-02T20:06:29.555Z,4.45
2022-08-02T20:08:59.163Z,2.67
2022-08-02T20:11:27.516Z,3.53
2022-08-02T20:13:53.936Z,3.15
2022-08-02T20:16:27.334Z,3.63
2022-08-02T20:18:54.121Z,4.50
2022-08-02T20:21:34.399Z,4.05
2022-08-02T20:24:07.185Z,3.88
2022-08-02T20:26:35.417Z,2.10
2022-08-02T20:29:03.477Z,2.83
2022-08-02T20:31:30.371Z,3.03
2022-08-02T20:33:57.118Z,2.33
2022-08-02T20:36:25.444Z,4.78
2022-08-02T20:38:51.898Z,2.97
2022-08-02T20:41:20.234Z,2.15
2022-08-02T20:43:48.702Z,2.22
2022-08-02T20:46:15.436Z,3.83
2022-08-02T20:48:41.888Z,5.53
2022-08-02T20:51:09.869Z,5.20
2022-08-02T20:53:54.777Z,5.30
2022-08-02T20:56:23.074Z,2.30
2022-08-02T20:58:51.865Z,2.38
2022-08-02T21:01:21.185Z,3.88
2022-08-02T21:03:58.366Z,2.53
2022-08-02T21:06:28.030Z,4.25
2022-08-02T21:08:54.937Z,4.10
2022-08-02T21:11:25.485Z,2.33
2022-08-02T21:14:08.163Z,4.63
2022-08-02T21:16:36.264Z,4.70
2022-08-02T21:19:03.073Z,3.75
2022-08-02T21:21:34.633Z,2.78
2022-08-02T21:24:01.590Z,3.03
2022-08-02T21:26:31.046Z,6.65
2022-08-02T21:29:01.050Z,3.00
2022-08-02T21:31:32.086Z,3.45
2022-08-02T21:34:02.818Z,5.20
2022-08-02T21:36:32.609Z,4.15
2022-08-02T21:39:08.751Z,2.95
2022-08-02T21:41:39.584Z,2.75
2022-08-02T21:44:13.090Z,3.92
2022-08-02T21:46:40.727Z,5.72
2022-08-02T21:49:11.262Z,4.47
2022-08-02T21:51:39.035Z,4.00
2022-08-02T21:54:18.171Z,3.65
2022-08-02T21:56:52.192Z,2.85
2022-08-02T21:59:25.295Z,5.60
2022-08-02T22:01:53.205Z,2.60
2022-08-02T22:04:21.289Z,2.58
2022-08-02T22:06:49.092Z,2.95
2022-08-02T22:09:42.202Z,2.08
2022-08-02T22:12:05.053Z,4.43
2022-08-02T22:14:36.372Z,2.63
2022-08-02T22:17:08.703Z,5.30
2022-08-02T22:19:35.357Z,2.88
2022-08-02T22:22:01.796Z,3.15
2022-08-02T22:24:30.220Z,2.22
2022-08-02T22:26:57.384Z,2.08
2022-08-02T22:29:23.842Z,3.45
2022-08-02T22:31:50.272Z,3.53
2022-08-02T22:34:37.035Z,2.38
2022-08-02T22:37:05.931Z,5.05
2022-08-02T22:39:34.328Z,5.22
2022-08-02T22:42:06.614Z,2.75
2022-08-02T22:44:34.823Z,2.67
2022-08-02T22:47:06.785Z,2.80
2022-08-02T22:49:37.924Z,3.03
2022-08-02T22:52:20.900Z,3.00
2022-08-02T22:54:47.687Z,4.15
2022-08-02T22:57:14.135Z,2.83
2022-08-02T22:59:41.157Z,3.72
2022-08-02T23:02:09.134Z,3.58
2022-08-02T23:04:36.747Z,3.42
2022-08-02T23:07:03.548Z,4.15
2022-08-02T23:09:30.144Z,6.32
2022-08-02T23:11:56.572Z,3.47
2022-08-02T23:14:22.994Z,4.97
2022-08-02T23:17:08.163Z,4.40
2022-08-02T23:19:52.621Z,5.80
2022-08-02T23:22:24.197Z,3.60
2022-08-02T23:24:56.949Z,3.58
2022-08-02T23:27:23.379Z,4.18
2022-08-02T23:29:49.825Z,4.45
2022-08-02T23:32:16.730Z,4.82
2022-08-02T23:34:43.515Z,5.38
2022-08-02T23:37:10.039Z,5.95
2022-08-02T23:39:36.788Z,5.35
2022-08-02T23:42:04.022Z,4.85
2022-08-02T23:44:30.753Z,4.72
2022-08-02T23:46:57.581Z,4.57
2022-08-02T23:49:24.049Z,5.32
2022-08-02T23:51:51.335Z,4.22
2022-08-02T23:54:18.036Z,4.45
2022-08-02T23:56:44.804Z,4.28
2022-08-02T23:59:11.443Z,5.05
